Terminal Aerodrome Forecast
Issued by NWS Sioux Falls, SD

Home | Current Version | Previous Version | Text Only | Print | Product List | Glossary Off
Versions: 1 2 3 4 5 6 7 8 9 10 11 12 13 14 15 16

698
FTUS43 KFSD 241128
TAFHON
TAF
KHON 241128Z 2412/2512 18004KT 2SM BR OVC002
      TEMPO 2412/2413 1/4SM FG VV001
     FM241400 24004KT 4SM BR BKN003
     FM241500 VRB05KT P6SM FEW200
     FM250600 12008KT P6SM BKN100
     FM250700 11007KT P6SM SHRA VCTS BKN040CB=

USA.gov is the U.S. government's official web portal to all federal, state and local government web resources and services.